Salem, OR (97303)

5:49 AM PDT on October 02, 2014 (GMT -0700)
Country Glen | Change Station
CLOSE
Current Station
Personal Weather Station
Location: Keizer, OR
Elevation: 140 ft
Nearby Weather Stations

Elev 140 ft 45.02 °N, 123.02 °W | Updated 22 seconds ago

Clear
Clear
42.6 °F
Feels Like 43 °F
N
0.0
Wind Variable Wind from North
Gusts 0.0 mph

Today
High -- | Low -- °F
--% Chance of Precip.
Yesterday
High -- | Low -- °F
Precip. -- in
7:11 AM 6:50 PM
First Quarter, 58% visible
Pressure 30.22 in
Visibility 10.0 miles
Clouds Clear
Windchill 43 °F
Dew Point 40 °F
Humidity 90%
Rainfall 0.00 in
Snow Depth 0 in , 2 in , 0 in
UV 0.0 out of 12
Pollen 1.20 out of 12
Air Quality Not available.
Flu Activity Not available.
METAR KSLE 021156Z AUTO 00000KT 10SM CLR 07/06 A3021 RMK AO2 SLP231 T00720056 10122 20072 58002

More Conditions Fewer Conditions

Pressure 30.22 in
Visibility 10.0 miles
Clouds Clear
Windchill 43 °F
Dew Point 40 °F
Humidity 90%
Rainfall 0.00 in
Snow Depth 0 in , 2 in , 0 in
UV 0.0 out of 12
Pollen 1.20 out of 12
Air Quality Not available.
Flu Activity Not available.
METAR KSLE 021156Z AUTO 00000KT 10SM CLR 07/06 A3021 RMK AO2 SLP231 T00720056 10122 20072 58002

More Conditions Fewer Conditions

10-Day Weather Forecast

Almanac

Astronomy

Oct. 02, 2014 Rise Set
Actual Time 7:11 AM PDT 6:50 PM PDT
Civil Twilight 6:42 AM PDT 7:19 PM PDT
Nautical Twilight 6:08 AM PDT 7:53 PM PDT
Astronomical Twilight 5:33 AM PDT 8:28 PM PDT
Moon 3:14 PM PDT 12:19 AM PDT
Length of Visible Light 12h 37m
Length of Day
11h 38m
Tomorrow will be 3m 6s shorter.
First Quarter, 58% of the Moon is Illuminated
Today
First Quarter
Oct 8
Full
Oct 15
Last Quarter
Oct 23
New
Oct 30
First Quarter

Today's Extremes

State Highs State Lows

Community

WunderPhotos

Upload Photos

1,758,226 photos uploaded!

WunderBlogs® & News

By Dr. Jeff Masters
Director of Meteorology, Weather Underground
By Kari Strenfel
Meteorologist, Weather Underground
By Christopher C. Burt
Weather Historian, Weather Underground
October 2, 2014
October 2, 2014
October 2, 2014

Nearby

Snow Depth

Station Depth Elevation
Fish Lake 0 in 4665 ft
Lucky Strike 2 in 5050 ft
Blue Mountain Spring 0 in 5900 ft
Madison Butte 0 in 5250 ft
Diamond Lake 0 in 5315 ft

Earthquake Activity

City Distance Mag. Time & Date
No recent earthquake activity has been reported nearby.
Minimum magnitude displayed is 2.5.

Coastal Water Temperatures

Place Temperature
No Stations Reporting

Nearby Weather Stations